Time;durP1;ratioP1;P1;durP2;ratioP2;P2;SDS_P1;SDS_P2;PMS_P1;PMS_P2;Temp;Humidity;BMP_temperature;BMP_pressure;BME280_temperature;BME280_humidity;BME280_pressure;Samples;Min_cycle;Max_cycle;Signal;HPM_P1;HPM_P2
2022/02/22 00:00:14;;;;;;;25.08;1.40;;;5.70;99.90;;;;;;5075791;28;20028;-75
2022/02/22 00:02:41;;;;;;;25.08;1.38;;;5.80;99.90;;;;;;5075759;28;20017;-75
2022/02/22 00:05:08;;;;;;;11.32;1.35;;;5.70;99.90;;;;;;5075753;28;20033;-76
2022/02/22 00:07:34;;;;;;;16.92;1.48;;;5.60;99.90;;;;;;5092109;28;20381;-76
2022/02/22 00:10:00;;;;;;;24.17;2.35;;;5.60;99.90;;;;;;5079787;28;20020;-76
2022/02/22 00:12:25;;;;;;;16.95;2.95;;;5.60;99.90;;;;;;5092336;28;20028;-75
2022/02/22 00:14:51;;;;;;;28.45;1.75;;;5.50;99.90;;;;;;5084364;28;20024;-76
2022/02/22 00:17:16;;;;;;;29.60;2.58;;;5.60;99.90;;;;;;5075215;28;20024;-76
2022/02/22 00:19:42;;;;;;;17.95;2.00;;;5.60;99.90;;;;;;5075459;28;20020;-76
2022/02/22 00:22:07;;;;;;;23.38;1.40;;;5.60;99.90;;;;;;5076673;28;20464;-76
2022/02/22 00:24:33;;;;;;;27.80;1.90;;;5.50;99.90;;;;;;5076437;28;20363;-76
2022/02/22 00:26:59;;;;;;;20.63;1.63;;;5.50;99.90;;;;;;5074921;28;20024;-76
2022/02/22 00:29:25;;;;;;;22.58;2.75;;;5.50;99.90;;;;;;5088361;28;20051;-76
2022/02/22 00:31:51;;;;;;;22.52;1.23;;;5.40;99.90;;;;;;5091821;28;20082;-76
2022/02/22 00:34:16;;;;;;;19.45;2.95;;;5.40;99.90;;;;;;5089515;28;20085;-76
2022/02/22 00:36:43;;;;;;;21.92;1.85;;;5.30;99.90;;;;;;5076005;28;20013;-76
2022/02/22 00:39:10;;;;;;;21.10;1.52;;;5.30;99.90;;;;;;5073774;28;20074;-76
2022/02/22 00:41:36;;;;;;;21.15;2.70;;;5.30;99.90;;;;;;5073663;28;20024;-76
2022/02/22 00:44:02;;;;;;;20.70;2.10;;;5.30;99.90;;;;;;5074818;28;20017;-75
2022/02/22 00:46:28;;;;;;;19.95;2.03;;;5.30;99.90;;;;;;5074868;28;20389;-75
2022/02/22 00:48:53;;;;;;;25.88;2.28;;;5.30;99.90;;;;;;5074808;28;20013;-75
2022/02/22 00:51:19;;;;;;;19.60;2.35;;;5.30;99.90;;;;;;5073324;28;20441;-75
2022/02/22 00:53:45;;;;;;;22.58;2.58;;;5.30;99.90;;;;;;5074864;28;20025;-75
2022/02/22 00:56:10;;;;;;;21.83;2.33;;;5.40;99.90;;;;;;5075009;28;20035;-76
2022/02/22 00:58:36;;;;;;;17.30;1.77;;;5.30;99.90;;;;;;5075062;28;20012;-75
2022/02/22 01:01:01;;;;;;;10.35;0.95;;;5.40;99.90;;;;;;5073180;28;20565;-76
2022/02/22 01:03:27;;;;;;;29.23;1.20;;;5.40;99.90;;;;;;5074396;28;20539;-76
2022/02/22 01:05:52;;;;;;;20.25;1.80;;;5.40;99.90;;;;;;5074975;28;20021;-76
2022/02/22 01:08:18;;;;;;;18.50;2.22;;;5.40;99.90;;;;;;5074275;28;20052;-76
2022/02/22 01:10:44;;;;;;;26.25;1.38;;;5.30;99.90;;;;;;5074310;28;20024;-76
2022/02/22 01:13:09;;;;;;;24.77;1.02;;;5.20;99.90;;;;;;5074519;28;20093;-76
2022/02/22 01:15:35;;;;;;;18.58;1.90;;;5.20;99.90;;;;;;5074305;28;20134;-76
2022/02/22 01:18:01;;;;;;;28.30;2.25;;;5.10;99.90;;;;;;5074563;28;20016;-76
2022/02/22 01:20:27;;;;;;;25.63;2.83;;;5.10;99.90;;;;;;5073935;28;20029;-76
2022/02/22 01:22:54;;;;;;;15.00;1.40;;;5.10;99.90;;;;;;5074357;28;20111;-75
2022/02/22 01:25:20;;;;;;;16.80;1.20;;;5.00;99.90;;;;;;5072036;28;20021;-75
2022/02/22 01:27:46;;;;;;;29.45;2.40;;;5.00;99.90;;;;;;5073688;28;20107;-75
2022/02/22 01:30:11;;;;;;;22.05;1.33;;;5.00;99.90;;;;;;5073954;28;20034;-75
2022/02/22 01:32:37;;;;;;;23.10;2.08;;;5.00;99.90;;;;;;5072660;28;20139;-75
2022/02/22 01:35:05;;;;;;;24.17;1.60;;;5.00;99.90;;;;;;5073560;28;20056;-75
2022/02/22 01:37:30;;;;;;;22.48;2.08;;;4.90;99.90;;;;;;5073862;28;20478;-76
2022/02/22 01:39:56;;;;;;;25.00;1.63;;;4.90;99.90;;;;;;5072324;28;20107;-75
2022/02/22 01:42:21;;;;;;;20.92;2.08;;;4.90;99.90;;;;;;5074950;28;20071;-76
2022/02/22 01:44:48;;;;;;;23.92;1.90;;;4.80;99.90;;;;;;5073736;28;20081;-77
2022/02/22 01:47:16;;;;;;;25.17;1.35;;;4.90;99.90;;;;;;5072449;28;20115;-75
2022/02/22 01:49:42;;;;;;;22.00;1.40;;;4.80;99.90;;;;;;5073735;28;20025;-76
2022/02/22 01:52:08;;;;;;;23.50;1.73;;;4.80;99.90;;;;;;5072259;28;20134;-76
2022/02/22 01:54:34;;;;;;;19.67;2.58;;;4.70;99.90;;;;;;5076448;28;20111;-76
2022/02/22 01:56:59;;;;;;;22.10;1.70;;;4.70;99.90;;;;;;5084439;28;20030;-75
2022/02/22 01:59:25;;;;;;;27.73;1.05;;;4.70;99.90;;;;;;5086936;28;20095;-76
2022/02/22 02:01:50;;;;;;;24.05;1.50;;;4.60;99.90;;;;;;5077284;28;20044;-76
2022/02/22 02:04:16;;;;;;;24.50;1.83;;;4.60;99.90;;;;;;5077962;28;20016;-76
2022/02/22 02:06:42;;;;;;;21.02;1.27;;;4.60;99.90;;;;;;5090550;28;21988;-76
2022/02/22 02:09:09;;;;;;;19.88;1.75;;;4.50;99.90;;;;;;5084010;28;20031;-76
2022/02/22 02:11:48;;;;;;;18.70;0.77;;;4.50;99.90;;;;;;5092085;28;20016;-76
2022/02/22 02:14:15;;;;;;;16.77;2.22;;;4.50;99.90;;;;;;5085758;28;20052;-76
2022/02/22 02:16:42;;;;;;;25.50;2.78;;;4.40;99.90;;;;;;5073227;28;20021;-76
2022/02/22 02:19:12;;;;;;;14.13;1.05;;;4.50;99.90;;;;;;5074456;28;20081;-76
2022/02/22 02:21:39;;;;;;;29.08;1.17;;;4.40;99.90;;;;;;5088276;28;20020;-75
2022/02/22 02:24:16;;;;;;;21.52;1.05;;;4.40;99.90;;;;;;5091407;28;20016;-75
2022/02/22 02:26:43;;;;;;;24.23;1.67;;;4.50;99.90;;;;;;5093607;28;20028;-76
2022/02/22 02:29:14;;;;;;;29.92;2.33;;;4.50;99.90;;;;;;5093754;28;20503;-75
2022/02/22 02:31:42;;;;;;;19.90;0.70;;;4.40;99.90;;;;;;5094032;28;20020;-76
2022/02/22 02:34:10;;;;;;;17.65;2.58;;;4.30;99.90;;;;;;5093294;28;20028;-76
2022/02/22 02:36:37;;;;;;;29.95;2.45;;;4.40;99.90;;;;;;5093941;28;20481;-76
2022/02/22 02:39:04;;;;;;;26.27;1.30;;;4.50;99.90;;;;;;5097452;28;20012;-76
2022/02/22 02:41:30;;;;;;;22.92;1.17;;;4.50;99.90;;;;;;5096285;28;20059;-76
2022/02/22 02:44:05;;;;;;;23.27;1.42;;;4.40;99.90;;;;;;5096025;28;20054;-76
2022/02/22 02:46:31;;;;;;;21.95;2.00;;;4.40;99.90;;;;;;5096438;28;20024;-76
2022/02/22 02:48:56;;;;;;;21.13;0.63;;;4.30;99.90;;;;;;5095957;28;20019;-76
2022/02/22 02:51:23;;;;;;;26.95;2.75;;;4.20;99.90;;;;;;5097727;28;20023;-76
2022/02/22 02:53:53;;;;;;;14.05;1.80;;;4.20;99.90;;;;;;5097058;28;20020;-76
2022/02/22 02:56:24;;;;;;;14.25;1.25;;;4.10;99.90;;;;;;5095654;28;20435;-75
2022/02/22 02:58:52;;;;;;;17.70;1.23;;;4.20;99.90;;;;;;5097600;28;20016;-76
2022/02/22 03:01:18;;;;;;;22.13;1.30;;;4.20;99.90;;;;;;5097044;28;20016;-75
2022/02/22 03:03:43;;;;;;;14.20;1.23;;;4.20;99.90;;;;;;5096873;28;20024;-76
2022/02/22 03:06:09;;;;;;;13.20;1.10;;;4.10;99.90;;;;;;5095809;28;20081;-76
2022/02/22 03:08:34;;;;;;;27.17;2.17;;;4.10;99.90;;;;;;5096914;28;20016;-76
2022/02/22 03:11:00;;;;;;;22.52;2.03;;;4.10;99.90;;;;;;5095650;28;20495;-75
2022/02/22 03:13:25;;;;;;;23.10;2.13;;;4.10;99.90;;;;;;5097280;28;20023;-76
2022/02/22 03:15:51;;;;;;;22.42;1.45;;;4.10;99.90;;;;;;5096666;28;20027;-74
2022/02/22 03:18:16;;;;;;;23.80;1.30;;;4.10;99.90;;;;;;5095606;28;20028;-73
2022/02/22 03:20:42;;;;;;;19.30;2.00;;;4.10;99.90;;;;;;5095570;28;20044;-75
2022/02/22 03:23:07;;;;;;;22.40;1.27;;;4.10;99.90;;;;;;5097500;28;20550;-73
2022/02/22 03:25:33;;;;;;;16.42;1.20;;;4.10;99.90;;;;;;5096575;28;20107;-75
2022/02/22 03:28:00;;;;;;;17.23;1.05;;;4.10;99.90;;;;;;5095916;28;20050;-74
2022/02/22 03:30:28;;;;;;;12.65;0.40;;;4.20;99.90;;;;;;5096850;28;20385;-75
2022/02/22 03:32:54;;;;;;;17.88;0.43;;;4.20;99.90;;;;;;5095124;28;20027;-75
2022/02/22 03:35:19;;;;;;;19.95;1.40;;;4.30;99.90;;;;;;5096187;28;20031;-75
2022/02/22 03:37:45;;;;;;;21.33;1.90;;;4.20;99.90;;;;;;5096390;28;20097;-75
2022/02/22 03:40:10;;;;;;;19.52;1.33;;;4.20;99.90;;;;;;5095786;28;20483;-74
2022/02/22 03:42:40;;;;;;;13.10;0.70;;;4.20;99.90;;;;;;5096522;28;20028;-75
2022/02/22 03:45:06;;;;;;;19.13;1.73;;;4.20;99.90;;;;;;5096430;28;20032;-74
2022/02/22 03:47:32;;;;;;;16.35;0.88;;;4.20;99.90;;;;;;5096192;28;20408;-75
2022/02/22 03:49:57;;;;;;;35.30;3.58;;;4.10;99.90;;;;;;5096595;28;20020;-74
2022/02/22 03:52:24;;;;;;;21.17;2.05;;;4.20;99.90;;;;;;5095937;28;20028;-74
2022/02/22 03:54:50;;;;;;;14.10;1.08;;;4.20;99.90;;;;;;5095805;28;20408;-74
2022/02/22 03:57:15;;;;;;;23.63;2.92;;;4.20;99.90;;;;;;5096671;28;20028;-74
2022/02/22 03:59:41;;;;;;;29.95;1.80;;;4.20;99.90;;;;;;5096202;28;20016;-75
2022/02/22 04:02:06;;;;;;;22.95;1.08;;;4.20;99.90;;;;;;5096116;28;20111;-75
2022/02/22 04:04:32;;;;;;;22.35;0.93;;;4.20;99.90;;;;;;5094447;28;20474;-74
2022/02/22 04:06:57;;;;;;;17.42;1.23;;;4.10;99.90;;;;;;5096369;28;20035;-74
2022/02/22 04:09:23;;;;;;;18.42;2.20;;;4.10;99.90;;;;;;5096271;28;20055;-74
2022/02/22 04:11:48;;;;;;;19.30;1.13;;;4.00;99.90;;;;;;5095827;28;20110;-74
2022/02/22 04:14:14;;;;;;;12.45;0.90;;;4.00;99.90;;;;;;5095314;28;20489;-75
2022/02/22 04:16:39;;;;;;;18.25;1.48;;;4.00;99.90;;;;;;5094266;28;20046;-75
2022/02/22 04:19:05;;;;;;;17.67;1.27;;;4.00;99.90;;;;;;5095915;28;20028;-75
2022/02/22 04:21:30;;;;;;;19.20;2.30;;;4.00;99.90;;;;;;5096313;28;20492;-75
2022/02/22 04:23:56;;;;;;;22.35;2.85;;;4.00;99.90;;;;;;5095379;28;20035;-75
2022/02/22 04:26:21;;;;;;;17.33;0.57;;;3.90;99.90;;;;;;5095574;28;20098;-75
2022/02/22 04:28:47;;;;;;;14.27;1.10;;;3.90;99.90;;;;;;5094174;28;20051;-76
2022/02/22 04:31:12;;;;;;;27.08;1.90;;;3.90;99.90;;;;;;5095172;28;20028;-76
2022/02/22 04:33:38;;;;;;;20.63;2.35;;;3.80;99.90;;;;;;5089174;28;20035;-76
2022/02/22 04:36:04;;;;;;;20.67;1.05;;;3.90;99.90;;;;;;5088240;28;20485;-76
2022/02/22 04:38:29;;;;;;;12.52;0.98;;;3.80;99.90;;;;;;5079714;28;20107;-77
2022/02/22 04:40:55;;;;;;;26.50;1.05;;;3.80;99.90;;;;;;5081634;28;20059;-76
2022/02/22 04:43:23;;;;;;;17.10;2.20;;;3.80;99.90;;;;;;5076663;28;20107;-76
2022/02/22 04:45:49;;;;;;;18.17;0.98;;;3.80;99.90;;;;;;5074717;28;20393;-75
2022/02/22 04:48:14;;;;;;;16.38;0.60;;;3.80;99.90;;;;;;5075222;28;20024;-76
2022/02/22 04:50:40;;;;;;;13.93;0.40;;;3.70;99.90;;;;;;5074681;28;20059;-75
2022/02/22 04:53:08;;;;;;;16.30;0.88;;;3.70;99.90;;;;;;5073279;28;20022;-75
2022/02/22 04:55:34;;;;;;;14.13;0.87;;;3.70;99.90;;;;;;5074512;28;20075;-77
2022/02/22 04:57:59;;;;;;;10.40;0.70;;;3.60;99.90;;;;;;5074715;28;20021;-75
2022/02/22 05:00:25;;;;;;;18.23;1.17;;;3.60;99.90;;;;;;5074240;28;20021;-76
2022/02/22 05:02:51;;;;;;;14.50;0.63;;;3.50;99.90;;;;;;5073182;28;20460;-73
2022/02/22 05:05:16;;;;;;;23.00;1.38;;;3.50;99.90;;;;;;5073288;28;20044;-74
2022/02/22 05:07:42;;;;;;;12.23;0.75;;;3.50;99.90;;;;;;5073007;28;20024;-74
2022/02/22 05:10:08;;;;;;;24.48;1.25;;;3.50;99.90;;;;;;5074477;28;20067;-74
2022/02/22 05:12:34;;;;;;;15.00;0.70;;;3.50;99.90;;;;;;5074025;28;20024;-74
2022/02/22 05:14:59;;;;;;;13.88;0.73;;;3.50;99.90;;;;;;5072571;28;20058;-74
2022/02/22 05:17:25;;;;;;;13.32;0.60;;;3.50;99.90;;;;;;5074359;28;20020;-74
2022/02/22 05:19:50;;;;;;;17.85;2.05;;;3.50;99.90;;;;;;5074541;28;20021;-74
2022/02/22 05:22:16;;;;;;;16.77;1.48;;;3.50;99.90;;;;;;5074482;28;20031;-74
2022/02/22 05:24:41;;;;;;;20.65;1.98;;;3.50;99.90;;;;;;5073821;28;20473;-74
2022/02/22 05:27:07;;;;;;;17.65;1.30;;;3.50;99.90;;;;;;5074492;28;20449;-74
2022/02/22 05:29:32;;;;;;;13.80;1.38;;;3.50;99.90;;;;;;5074379;28;20040;-73
2022/02/22 05:31:59;;;;;;;13.85;0.60;;;3.50;99.90;;;;;;5073892;28;20028;-73
2022/02/22 05:34:25;;;;;;;17.60;0.57;;;3.40;99.90;;;;;;5072396;28;20025;-73
2022/02/22 05:36:51;;;;;;;11.38;0.82;;;3.40;99.90;;;;;;5073803;28;20021;-74
2022/02/22 05:39:16;;;;;;;22.42;1.73;;;3.40;99.90;;;;;;5072412;28;20063;-74
2022/02/22 05:41:42;;;;;;;11.52;1.02;;;3.40;99.90;;;;;;5073668;28;20052;-74
2022/02/22 05:44:07;;;;;;;13.95;0.70;;;3.40;99.90;;;;;;5073558;28;20017;-74
2022/02/22 05:46:33;;;;;;;25.58;1.48;;;3.40;99.90;;;;;;5072514;28;20020;-73
2022/02/22 05:48:58;;;;;;;24.15;0.55;;;3.40;99.90;;;;;;5072230;28;20115;-73
2022/02/22 05:51:24;;;;;;;15.18;1.05;;;3.30;99.90;;;;;;5073830;28;20025;-74
2022/02/22 05:53:51;;;;;;;16.52;1.27;;;3.30;99.90;;;;;;5073458;28;20036;-73
2022/02/22 05:56:17;;;;;;;21.55;1.38;;;3.30;99.90;;;;;;5074004;28;20106;-74
2022/02/22 05:58:43;;;;;;;16.38;1.50;;;3.40;99.90;;;;;;5073466;28;20052;-73
2022/02/22 06:01:09;;;;;;;16.98;0.73;;;3.40;99.90;;;;;;5073705;28;20021;-74
2022/02/22 06:03:34;;;;;;;12.57;0.52;;;3.40;99.90;;;;;;5073438;28;20024;-74
2022/02/22 06:06:00;;;;;;;11.52;0.80;;;3.40;99.90;;;;;;5073480;28;20047;-73
2022/02/22 06:08:27;;;;;;;23.92;0.63;;;3.40;99.90;;;;;;5073347;28;20032;-73
2022/02/22 06:10:52;;;;;;;12.32;1.50;;;3.50;99.90;;;;;;5073724;28;20424;-74
2022/02/22 06:13:19;;;;;;;13.65;1.75;;;3.60;99.90;;;;;;5073339;28;20016;-74
2022/02/22 06:15:44;;;;;;;14.75;0.47;;;3.70;99.90;;;;;;5073095;28;20068;-74
2022/02/22 06:18:10;;;;;;;14.15;1.58;;;3.80;99.90;;;;;;5073523;28;20041;-73
2022/02/22 06:20:36;;;;;;;15.43;2.28;;;3.80;99.90;;;;;;5071982;28;20017;-73
2022/02/22 06:23:02;;;;;;;18.00;0.75;;;3.80;99.90;;;;;;5073048;28;20038;-75
2022/02/22 06:25:30;;;;;;;13.93;1.23;;;3.90;99.90;;;;;;5073791;28;20103;-74
2022/02/22 06:27:55;;;;;;;8.27;0.93;;;3.90;99.90;;;;;;5071889;28;20052;-74
2022/02/22 06:30:22;;;;;;;12.20;0.75;;;4.10;99.90;;;;;;5073120;28;20416;-74
2022/02/22 06:32:49;;;;;;;14.70;1.45;;;4.10;99.90;;;;;;5073116;28;20025;-75
2022/02/22 06:35:15;;;;;;;11.50;0.70;;;4.20;99.90;;;;;;5071667;28;20466;-75
2022/02/22 06:37:41;;;;;;;14.27;1.90;;;4.20;99.90;;;;;;5071785;28;20021;-74
2022/02/22 06:40:08;;;;;;;14.50;1.02;;;4.20;99.90;;;;;;5073009;28;20121;-75
2022/02/22 06:42:35;;;;;;;14.45;0.70;;;4.30;99.90;;;;;;5073357;28;20394;-75
2022/02/22 06:45:01;;;;;;;11.68;1.10;;;4.30;99.90;;;;;;5073202;28;20031;-75
2022/02/22 06:47:26;;;;;;;8.43;1.85;;;4.30;99.90;;;;;;5071866;28;20028;-75
2022/02/22 06:49:52;;;;;;;7.38;0.50;;;4.50;99.90;;;;;;5072989;28;20020;-75
2022/02/22 06:52:18;;;;;;;15.13;0.85;;;4.50;99.90;;;;;;5072968;28;20025;-75
2022/02/22 06:54:45;;;;;;;18.88;1.50;;;4.60;99.90;;;;;;5073005;28;20066;-75
2022/02/22 06:57:11;;;;;;;11.00;1.05;;;4.70;99.90;;;;;;5071618;28;20071;-75
2022/02/22 06:59:37;;;;;;;23.15;1.65;;;4.80;99.90;;;;;;5073067;28;20024;-75
2022/02/22 07:02:02;;;;;;;12.48;1.30;;;4.80;99.90;;;;;;5071731;28;20052;-75
2022/02/22 07:04:28;;;;;;;11.32;0.60;;;4.90;99.90;;;;;;5073248;28;20418;-75
2022/02/22 07:06:54;;;;;;;13.48;1.15;;;4.90;99.90;;;;;;5073356;28;20024;-75
2022/02/22 07:09:19;;;;;;;5.93;0.82;;;4.90;99.90;;;;;;5073339;28;20022;-75
2022/02/22 07:11:45;;;;;;;12.65;0.82;;;5.00;99.90;;;;;;5071684;28;20069;-75
2022/02/22 07:14:10;;;;;;;10.45;0.60;;;5.10;99.90;;;;;;5072794;28;20029;-75
2022/02/22 07:16:36;;;;;;;17.63;1.35;;;5.10;99.90;;;;;;5071707;28;20028;-75
2022/02/22 07:19:02;;;;;;;12.43;0.38;;;5.20;99.90;;;;;;5071704;28;20020;-75
2022/02/22 07:21:28;;;;;;;18.70;0.28;;;5.20;99.90;;;;;;5072869;28;20021;-75
2022/02/22 07:23:54;;;;;;;12.73;1.52;;;5.20;99.90;;;;;;5074522;28;20097;-75
2022/02/22 07:26:19;;;;;;;16.95;0.43;;;5.20;99.90;;;;;;5076769;28;20363;-76
2022/02/22 07:28:45;;;;;;;13.32;0.73;;;5.20;99.90;;;;;;5074900;28;20031;-76
2022/02/22 07:31:11;;;;;;;8.65;0.40;;;5.30;99.90;;;;;;5076345;28;20028;-75
2022/02/22 07:33:38;;;;;;;6.32;0.60;;;5.30;99.90;;;;;;5074845;28;20070;-75
2022/02/22 07:36:05;;;;;;;9.88;0.77;;;5.30;99.90;;;;;;5076379;28;20016;-74
2022/02/22 07:38:30;;;;;;;15.25;3.25;;;5.40;99.90;;;;;;5074779;28;20035;-74
2022/02/22 07:40:56;;;;;;;8.25;0.60;;;5.40;99.90;;;;;;5074880;28;20024;-74
2022/02/22 07:43:22;;;;;;;9.95;0.35;;;5.50;99.90;;;;;;5075814;28;20019;-74
2022/02/22 07:45:48;;;;;;;12.75;1.50;;;5.50;99.90;;;;;;5076131;28;20389;-74
2022/02/22 07:48:13;;;;;;;10.52;0.47;;;5.60;99.90;;;;;;5076086;28;20020;-75
2022/02/22 07:50:39;;;;;;;19.42;1.20;;;5.70;99.90;;;;;;5076169;28;20103;-74
2022/02/22 07:53:05;;;;;;;9.13;0.40;;;5.70;99.90;;;;;;5075821;28;20081;-74
2022/02/22 07:55:31;;;;;;;13.93;1.10;;;5.70;99.90;;;;;;5074505;28;20070;-75
2022/02/22 07:57:56;;;;;;;14.10;0.93;;;5.80;99.90;;;;;;5075872;28;20031;-74
2022/02/22 08:00:22;;;;;;;10.48;0.50;;;5.80;99.90;;;;;;5074680;28;20188;-75
2022/02/22 08:02:47;;;;;;;11.52;0.95;;;5.80;99.90;;;;;;5074529;28;20139;-75
2022/02/22 08:05:13;;;;;;;10.73;0.80;;;5.90;99.90;;;;;;5074750;28;20465;-76
2022/02/22 08:07:39;;;;;;;14.32;1.50;;;6.00;99.90;;;;;;5074567;28;20056;-75
2022/02/22 08:10:06;;;;;;;9.52;0.50;;;5.90;99.90;;;;;;5076179;28;20021;-75
2022/02/22 08:12:32;;;;;;;19.27;1.02;;;6.00;99.90;;;;;;5076709;28;20377;-75
2022/02/22 08:14:58;;;;;;;16.10;0.68;;;6.00;99.90;;;;;;5075213;28;20035;-75
2022/02/22 08:17:24;;;;;;;10.40;0.70;;;6.00;99.90;;;;;;5075780;28;20476;-75
2022/02/22 08:19:49;;;;;;;15.80;0.75;;;6.20;99.90;;;;;;5075368;28;20416;-75
2022/02/22 08:22:15;;;;;;;11.70;1.20;;;6.30;99.90;;;;;;5075348;28;20529;-75
2022/02/22 08:24:40;;;;;;;19.17;1.48;;;6.30;99.90;;;;;;5074141;28;20032;-75
2022/02/22 08:27:06;;;;;;;13.07;1.02;;;6.30;99.90;;;;;;5075477;28;20040;-75
2022/02/22 08:29:32;;;;;;;18.48;1.85;;;6.40;99.90;;;;;;5074203;28;20032;-75
2022/02/22 08:31:58;;;;;;;26.65;2.35;;;6.50;99.90;;;;;;5075333;28;20048;-75
2022/02/22 08:34:24;;;;;;;17.67;1.35;;;6.50;99.90;;;;;;5075290;28;20025;-75
2022/02/22 08:36:49;;;;;;;11.13;0.82;;;6.50;99.90;;;;;;5075010;28;20016;-75
2022/02/22 08:39:15;;;;;;;26.73;2.97;;;6.60;99.90;;;;;;5075710;28;20025;-73
2022/02/22 08:41:41;;;;;;;19.85;1.40;;;6.70;99.90;;;;;;5075457;28;20017;-74
2022/02/22 08:44:08;;;;;;;18.65;2.17;;;6.80;99.90;;;;;;5074015;28;20500;-74
2022/02/22 08:46:33;;;;;;;10.60;1.08;;;6.80;99.90;;;;;;5075415;28;20386;-76
2022/02/22 08:48:59;;;;;;;15.75;1.75;;;6.90;99.90;;;;;;5074829;28;20028;-74
2022/02/22 08:51:24;;;;;;;24.58;1.67;;;6.90;99.90;;;;;;5075157;28;20036;-74
2022/02/22 08:53:50;;;;;;;23.38;1.83;;;6.90;99.90;;;;;;5075447;28;20063;-74
2022/02/22 08:56:15;;;;;;;19.60;1.33;;;7.00;99.90;;;;;;5073525;28;20444;-76
2022/02/22 08:58:41;;;;;;;14.88;0.75;;;7.00;99.90;;;;;;5075003;28;20096;-75
2022/02/22 09:01:07;;;;;;;11.30;1.10;;;7.10;99.90;;;;;;5074536;28;20017;-75
2022/02/22 09:03:33;;;;;;;19.13;1.25;;;7.20;99.90;;;;;;5074995;28;20017;-74
2022/02/22 09:05:59;;;;;;;15.98;0.82;;;7.30;99.90;;;;;;5073754;28;20367;-75
2022/02/22 09:08:26;;;;;;;15.60;1.70;;;7.30;99.90;;;;;;5075486;28;20454;-75
2022/02/22 09:10:51;;;;;;;14.63;1.33;;;7.30;99.90;;;;;;5074918;28;20020;-74
2022/02/22 09:13:20;;;;;;;16.10;1.10;;;7.30;99.90;;;;;;5074633;28;20107;-74
2022/02/22 09:15:46;;;;;;;20.73;1.13;;;7.40;99.90;;;;;;5074706;28;20107;-74
2022/02/22 09:18:12;;;;;;;15.05;1.42;;;7.50;99.90;;;;;;5074257;28;20044;-74
2022/02/22 09:20:38;;;;;;;13.88;1.48;;;7.50;99.90;;;;;;5074514;28;20540;-75
2022/02/22 09:23:04;;;;;;;28.55;2.50;;;7.40;99.90;;;;;;5072930;28;20408;-74
2022/02/22 09:25:32;;;;;;;32.38;2.60;;;7.50;99.90;;;;;;5074312;28;20029;-75
2022/02/22 09:27:59;;;;;;;12.13;1.30;;;7.50;99.90;;;;;;5074196;28;20062;-74
2022/02/22 09:30:25;;;;;;;17.98;1.40;;;7.50;99.90;;;;;;5074966;28;20016;-74
2022/02/22 09:32:51;;;;;;;19.63;2.83;;;7.40;99.90;;;;;;5074221;28;20063;-74
2022/02/22 09:35:19;;;;;;;12.80;3.08;;;7.40;99.90;;;;;;5073837;28;20494;-75
2022/02/22 09:37:45;;;;;;;19.52;1.95;;;7.10;99.90;;;;;;5073797;28;20016;-75
2022/02/22 09:40:12;;;;;;;19.63;2.28;;;7.30;99.90;;;;;;5072908;28;20055;-75
2022/02/22 09:42:37;;;;;;;21.30;2.50;;;7.20;99.90;;;;;;5074052;28;20020;-74
2022/02/22 09:45:07;;;;;;;16.65;2.30;;;7.20;99.90;;;;;;5073685;28;20074;-73
2022/02/22 09:47:36;;;;;;;17.70;1.55;;;7.20;99.90;;;;;;5073811;28;20017;-75
2022/02/22 09:50:04;;;;;;;12.10;1.63;;;7.20;99.90;;;;;;5074271;28;20033;-75
2022/02/22 09:52:29;;;;;;;27.17;4.07;;;7.20;99.90;;;;;;5072430;28;20021;-75
2022/02/22 09:54:55;;;;;;;22.55;3.30;;;7.30;99.90;;;;;;5072588;28;20534;-75
2022/02/22 09:57:21;;;;;;;20.25;3.50;;;7.30;99.90;;;;;;5073931;28;20402;-75
2022/02/22 09:59:46;;;;;;;23.95;2.78;;;7.30;99.90;;;;;;5073996;28;20028;-75
2022/02/22 10:02:12;;;;;;;21.50;2.58;;;7.30;99.90;;;;;;5072412;28;20501;-75
2022/02/22 10:04:46;;;;;;;21.85;2.65;;;7.30;99.90;;;;;;5074098;28;20048;-74
2022/02/22 10:07:12;;;;;;;21.20;3.30;;;7.40;99.90;;;;;;5072660;28;20086;-75
2022/02/22 10:09:55;;;;;;;17.60;1.85;;;7.50;99.90;;;;;;5074253;28;20071;-74
2022/02/22 10:12:35;;;;;;;19.67;2.03;;;7.50;99.90;;;;;;5073862;28;20024;-75
2022/02/22 10:15:00;;;;;;;21.63;3.10;;;7.60;99.90;;;;;;5073745;28;20070;-75
2022/02/22 10:17:26;;;;;;;27.23;2.75;;;7.60;99.90;;;;;;5073786;28;20024;-74
2022/02/22 10:20:02;;;;;;;13.85;2.00;;;7.60;99.90;;;;;;5073979;28;20032;-73
2022/02/22 10:22:29;;;;;;;18.77;1.80;;;7.60;99.90;;;;;;5074031;28;20431;-74
2022/02/22 10:25:08;;;;;;;16.25;2.38;;;7.60;99.90;;;;;;5073420;28;20020;-74
2022/02/22 10:27:50;;;;;;;15.40;1.80;;;7.70;99.90;;;;;;5072017;28;20081;-75
2022/02/22 10:30:39;;;;;;;15.50;3.30;;;7.80;99.90;;;;;;5072597;28;20025;-75
2022/02/22 10:33:18;;;;;;;19.17;2.25;;;7.90;99.90;;;;;;5073473;28;20055;-75
2022/02/22 10:35:51;;;;;;;23.70;2.03;;;7.90;99.90;;;;;;5073663;28;20049;-75
2022/02/22 10:38:26;;;;;;;18.30;3.45;;;7.90;99.90;;;;;;5073693;28;20115;-75
2022/02/22 10:41:15;;;;;;;21.70;3.83;;;8.00;99.90;;;;;;5073484;28;20028;-75
2022/02/22 10:43:56;;;;;;;12.30;2.60;;;7.90;99.90;;;;;;5073512;28;20101;-75
2022/02/22 10:46:26;;;;;;;15.05;1.95;;;7.90;99.90;;;;;;5073380;28;20040;-75
2022/02/22 10:49:01;;;;;;;18.40;1.70;;;7.90;99.90;;;;;;5073940;28;20024;-75
2022/02/22 10:51:41;;;;;;;18.83;3.78;;;7.90;99.90;;;;;;5072645;28;20393;-76
2022/02/22 10:54:08;;;;;;;20.38;3.22;;;7.90;99.90;;;;;;5074158;28;20103;-75
2022/02/22 10:56:35;;;;;;;18.10;2.83;;;7.90;99.90;;;;;;5073603;28;20024;-73
2022/02/22 10:59:02;;;;;;;14.70;1.88;;;7.80;99.90;;;;;;5075454;28;20066;-75
2022/02/22 11:01:28;;;;;;;25.25;2.00;;;7.80;99.90;;;;;;5077356;28;20557;-75
2022/02/22 11:03:54;;;;;;;13.68;2.42;;;7.80;99.90;;;;;;5077090;28;20055;-75
2022/02/22 11:06:21;;;;;;;11.90;1.67;;;7.60;99.90;;;;;;5077275;28;20032;-74
2022/02/22 11:08:48;;;;;;;16.85;2.63;;;7.60;99.90;;;;;;5075786;28;20029;-73
2022/02/22 11:11:20;;;;;;;25.17;2.80;;;7.60;99.90;;;;;;5077215;28;20050;-74
2022/02/22 11:14:00;;;;;;;16.13;1.75;;;7.60;99.90;;;;;;5077175;28;20028;-74
2022/02/22 11:16:37;;;;;;;18.00;2.63;;;7.50;99.90;;;;;;5077248;28;20028;-75
2022/02/22 11:19:22;;;;;;;31.70;3.25;;;7.60;99.90;;;;;;5076928;28;20504;-75
2022/02/22 11:21:55;;;;;;;33.08;3.75;;;7.50;99.90;;;;;;5077085;28;20020;-74
2022/02/22 11:24:22;;;;;;;20.48;2.35;;;7.50;99.90;;;;;;5078192;28;20029;-73
2022/02/22 11:27:00;;;;;;;15.27;2.03;;;7.50;99.90;;;;;;5075207;28;20028;-74
2022/02/22 11:29:30;;;;;;;13.40;1.95;;;7.50;99.90;;;;;;5076708;28;20366;-74
2022/02/22 11:32:06;;;;;;;12.02;1.33;;;7.60;99.90;;;;;;5077077;28;20070;-74
2022/02/22 11:34:40;;;;;;;21.35;2.10;;;7.60;99.90;;;;;;5074961;28;20107;-74
2022/02/22 11:37:11;;;;;;;16.27;2.53;;;7.60;99.90;;;;;;5075313;28;20628;-74
2022/02/22 11:39:55;;;;;;;23.45;2.58;;;7.70;99.90;;;;;;5076812;28;20027;-74
2022/02/22 11:42:24;;;;;;;14.07;2.08;;;7.70;99.90;;;;;;5076791;28;20028;-75
2022/02/22 11:45:01;;;;;;;20.45;3.83;;;7.80;99.90;;;;;;5075226;28;20020;-74
2022/02/22 11:47:29;;;;;;;29.67;3.85;;;7.90;99.90;;;;;;5076301;28;20024;-75
2022/02/22 11:49:58;;;;;;;17.50;2.42;;;8.00;99.90;;;;;;5075094;28;20060;-74
2022/02/22 11:52:44;;;;;;;15.88;2.60;;;8.10;99.90;;;;;;5076234;28;20393;-74
2022/02/22 11:55:16;;;;;;;23.73;3.28;;;8.10;99.90;;;;;;5076136;28;20028;-74
2022/02/22 11:57:56;;;;;;;16.20;2.65;;;8.20;99.90;;;;;;5076398;28;20021;-74
2022/02/22 12:00:36;;;;;;;15.02;2.85;;;8.30;99.90;;;;;;5076429;28;20187;-75
2022/02/22 12:03:09;;;;;;;24.88;3.28;;;8.40;99.90;;;;;;5074795;28;20103;-75
2022/02/22 12:05:39;;;;;;;22.50;4.20;;;8.40;99.90;;;;;;5075088;28;20028;-75
2022/02/22 12:08:04;;;;;;;16.40;3.20;;;8.50;99.90;;;;;;5074358;28;20043;-75
2022/02/22 12:10:32;;;;;;;26.70;4.75;;;8.60;99.90;;;;;;5076301;28;20028;-73
2022/02/22 12:13:12;;;;;;;17.55;3.50;;;8.60;99.90;;;;;;5075757;28;20023;-74
2022/02/22 12:15:39;;;;;;;16.63;2.75;;;8.60;99.90;;;;;;5074194;28;20043;-76
2022/02/22 12:18:11;;;;;;;22.38;3.42;;;8.60;99.90;;;;;;5074493;28;20013;-76
2022/02/22 12:20:36;;;;;;;26.70;3.97;;;8.70;99.90;;;;;;5076309;28;20021;-74
2022/02/22 12:23:02;;;;;;;14.85;2.35;;;8.70;99.90;;;;;;5074346;28;20024;-76
2022/02/22 12:25:28;;;;;;;16.67;3.15;;;8.80;99.90;;;;;;5074064;28;20025;-75
2022/02/22 12:28:02;;;;;;;15.63;3.15;;;8.80;99.90;;;;;;5074306;28;20432;-75
2022/02/22 12:30:36;;;;;;;14.93;2.40;;;8.80;99.90;;;;;;5075756;28;20111;-74
2022/02/22 12:33:02;;;;;;;26.60;3.75;;;8.80;99.90;;;;;;5074080;28;20024;-75
2022/02/22 12:35:54;;;;;;;18.63;2.88;;;8.80;99.90;;;;;;5073982;28;20445;-75
2022/02/22 12:38:28;;;;;;;16.75;2.58;;;8.90;99.90;;;;;;5072769;28;20036;-75
2022/02/22 12:40:54;;;;;;;24.65;3.88;;;9.00;99.90;;;;;;5075254;28;20089;-75
2022/02/22 12:43:20;;;;;;;22.13;2.63;;;9.00;99.90;;;;;;5073482;28;20021;-74
2022/02/22 12:45:49;;;;;;;13.13;2.55;;;9.10;99.90;;;;;;5074156;28;20025;-75
2022/02/22 12:48:16;;;;;;;;;;;9.20;99.90;;;;;;5073959;28;20044;-75